Time;durP1;ratioP1;P1;durP2;ratioP2;P2;SDS_P1;SDS_P2;PMS_P1;PMS_P2;Temp;Humidity;BMP_temperature;BMP_pressure;BME280_temperature;BME280_humidity;BME280_pressure;Samples;Min_cycle;Max_cycle;Signal;HPM_P1;HPM_P2
2021/06/23 00:01:42;;;;;;;16.65;2.65;;;13.50;99.90;;;;;;5087277;28;20064;-78
2021/06/23 00:04:08;;;;;;;14.40;2.70;;;13.50;99.90;;;;;;5089444;28;20032;-79
2021/06/23 00:06:34;;;;;;;11.95;2.42;;;13.50;99.90;;;;;;5085412;28;20036;-81
2021/06/23 00:08:59;;;;;;;9.13;2.42;;;13.50;99.90;;;;;;5067390;28;20049;-79
2021/06/23 00:11:30;;;;;;;16.80;2.58;;;13.50;99.90;;;;;;5064722;28;20040;-80
2021/06/23 00:13:58;;;;;;;8.32;2.20;;;13.50;99.90;;;;;;5064635;28;20062;-80
2021/06/23 00:16:23;;;;;;;11.93;2.40;;;13.50;99.90;;;;;;5061828;28;20033;-80
2021/06/23 00:18:49;;;;;;;10.02;2.67;;;13.50;99.90;;;;;;5059689;28;20094;-81
2021/06/23 00:21:15;;;;;;;15.20;3.03;;;13.50;99.90;;;;;;5067580;28;20435;-80
2021/06/23 00:23:40;;;;;;;10.30;2.50;;;13.60;99.90;;;;;;5070001;28;20040;-79
2021/06/23 00:26:06;;;;;;;13.35;2.83;;;13.60;99.90;;;;;;5059164;28;20098;-79
2021/06/23 00:28:32;;;;;;;12.15;2.22;;;13.60;99.90;;;;;;5068466;28;20044;-80
2021/06/23 00:30:58;;;;;;;11.73;2.63;;;13.60;99.90;;;;;;5055372;28;20040;-80
2021/06/23 00:33:30;;;;;;;11.35;2.70;;;13.70;99.90;;;;;;5060602;28;20040;-79
2021/06/23 00:35:56;;;;;;;9.10;2.15;;;13.60;99.90;;;;;;5059115;28;20484;-79
2021/06/23 00:38:22;;;;;;;11.65;2.70;;;13.60;99.90;;;;;;5066469;28;20048;-80
2021/06/23 00:40:47;;;;;;;15.30;2.65;;;13.70;99.90;;;;;;5070763;28;20045;-80
2021/06/23 00:43:14;;;;;;;10.88;2.47;;;13.60;99.90;;;;;;5064192;28;20543;-80
2021/06/23 00:45:40;;;;;;;9.00;2.28;;;13.60;99.90;;;;;;5059137;28;20040;-80
2021/06/23 00:48:10;;;;;;;14.05;2.55;;;13.60;99.90;;;;;;5043202;28;20048;-78
2021/06/23 00:50:39;;;;;;;13.60;2.60;;;13.60;99.90;;;;;;5064823;28;20128;-79
2021/06/23 00:53:05;;;;;;;11.77;2.10;;;13.60;99.90;;;;;;5064169;28;20048;-79
2021/06/23 00:55:31;;;;;;;10.65;2.13;;;13.40;99.90;;;;;;5063164;28;20127;-79
2021/06/23 00:57:57;;;;;;;10.30;2.70;;;13.60;99.90;;;;;;5065422;28;20480;-79
2021/06/23 01:00:31;;;;;;;10.52;2.50;;;13.60;99.90;;;;;;5060532;28;20100;-81
2021/06/23 01:02:58;;;;;;;16.08;2.47;;;13.60;99.90;;;;;;5060638;28;20048;-80
2021/06/23 01:05:24;;;;;;;9.85;2.30;;;13.60;99.90;;;;;;5056334;28;20496;-79
2021/06/23 01:07:51;;;;;;;13.77;2.25;;;13.60;99.90;;;;;;5065804;28;20063;-80
2021/06/23 01:10:17;;;;;;;7.93;2.38;;;13.60;99.90;;;;;;5057063;28;20029;-80
2021/06/23 01:13:04;;;;;;;12.75;2.30;;;13.60;99.90;;;;;;5047036;28;20553;-81
2021/06/23 01:15:30;;;;;;;10.95;2.20;;;13.60;99.90;;;;;;5062628;28;20033;-80
2021/06/23 01:17:58;;;;;;;11.02;2.60;;;13.60;99.90;;;;;;5058538;28;20029;-79
2021/06/23 01:20:23;;;;;;;12.50;2.42;;;13.60;99.90;;;;;;5068897;28;20028;-79
2021/06/23 01:22:49;;;;;;;16.52;2.78;;;13.60;99.90;;;;;;5057671;28;20062;-80
2021/06/23 01:25:16;;;;;;;14.45;2.28;;;13.60;99.90;;;;;;5064954;28;20029;-78
2021/06/23 01:27:43;;;;;;;14.15;2.30;;;13.60;99.90;;;;;;5060985;28;20075;-81
2021/06/23 01:30:10;;;;;;;10.10;2.70;;;13.50;99.90;;;;;;5063171;28;20044;-79
2021/06/23 01:32:37;;;;;;;13.02;2.40;;;13.50;99.90;;;;;;5062092;28;20110;-78
2021/06/23 01:35:03;;;;;;;13.02;2.50;;;13.60;99.90;;;;;;5065532;28;20039;-80
2021/06/23 01:37:29;;;;;;;12.18;2.58;;;13.50;99.90;;;;;;5059136;28;20434;-81
2021/06/23 01:39:56;;;;;;;11.55;2.60;;;13.50;99.90;;;;;;5064709;28;20100;-81
2021/06/23 01:42:21;;;;;;;15.32;3.25;;;13.50;99.90;;;;;;5077461;28;20052;-81
2021/06/23 01:44:47;;;;;;;8.00;2.55;;;13.50;99.90;;;;;;5059253;28;20028;-81
2021/06/23 01:47:13;;;;;;;12.73;2.67;;;13.50;99.90;;;;;;5061109;28;20102;-80
2021/06/23 01:49:40;;;;;;;14.73;2.80;;;13.50;99.90;;;;;;5065214;28;20041;-78
2021/06/23 01:52:06;;;;;;;14.55;2.67;;;13.50;99.90;;;;;;5069102;28;20028;-80
2021/06/23 01:54:42;;;;;;;13.13;2.90;;;13.50;99.90;;;;;;5067468;28;20033;-80
2021/06/23 01:57:10;;;;;;;11.18;2.70;;;13.50;99.90;;;;;;5059967;28;20086;-80
2021/06/23 01:59:37;;;;;;;17.77;2.95;;;13.40;99.90;;;;;;5063206;28;20036;-79
2021/06/23 02:02:15;;;;;;;13.45;3.17;;;13.50;99.90;;;;;;5059207;28;20045;-81
2021/06/23 02:05:14;;;;;;;11.20;2.80;;;13.50;99.90;;;;;;5057395;28;20029;-80
2021/06/23 02:07:58;;;;;;;11.60;2.67;;;13.40;99.90;;;;;;5064706;28;20052;-79
2021/06/23 02:10:24;;;;;;;16.90;2.73;;;13.50;99.90;;;;;;5081633;28;20106;-76
2021/06/23 02:13:21;;;;;;;10.23;2.20;;;13.50;99.90;;;;;;5067961;28;20033;-81
2021/06/23 02:15:49;;;;;;;18.88;2.70;;;13.50;99.90;;;;;;5061177;28;20487;-79
2021/06/23 02:18:15;;;;;;;13.25;2.60;;;13.50;99.90;;;;;;5062033;28;20036;-79
2021/06/23 02:20:42;;;;;;;11.05;2.85;;;13.50;99.90;;;;;;5070010;28;20117;-80
2021/06/23 02:23:09;;;;;;;18.92;2.72;;;13.50;99.90;;;;;;5066527;28;20083;-80
2021/06/23 02:25:34;;;;;;;9.70;2.25;;;13.50;99.90;;;;;;5063950;28;20041;-81
2021/06/23 02:28:00;;;;;;;16.38;2.70;;;13.50;99.90;;;;;;5071791;28;20099;-80
2021/06/23 02:30:26;;;;;;;17.48;3.00;;;13.40;99.90;;;;;;5059162;28;20040;-80
2021/06/23 02:32:55;;;;;;;11.00;2.33;;;13.40;99.90;;;;;;5066959;28;20036;-79
2021/06/23 02:35:24;;;;;;;19.27;2.90;;;13.40;99.90;;;;;;5061300;28;20041;-79
2021/06/23 02:37:51;;;;;;;11.32;2.78;;;13.40;99.90;;;;;;5066032;28;20044;-80
2021/06/23 02:40:18;;;;;;;12.20;2.72;;;13.40;99.90;;;;;;5059960;28;20040;-81
2021/06/23 02:42:45;;;;;;;11.90;2.40;;;13.40;99.90;;;;;;5062443;28;20528;-79
2021/06/23 02:45:13;;;;;;;9.40;2.10;;;13.40;99.90;;;;;;5071708;28;20033;-79
2021/06/23 02:47:40;;;;;;;16.73;2.95;;;13.40;99.90;;;;;;5069029;28;20491;-81
2021/06/23 02:50:07;;;;;;;18.38;2.90;;;13.40;99.90;;;;;;5071831;28;20029;-81
2021/06/23 02:52:35;;;;;;;12.88;2.65;;;13.40;99.90;;;;;;5066333;28;20048;-81
2021/06/23 02:55:02;;;;;;;13.32;2.40;;;13.40;99.90;;;;;;5060466;28;20029;-81
2021/06/23 02:57:29;;;;;;;10.73;2.10;;;13.40;99.90;;;;;;5064081;28;20357;-79
2021/06/23 02:59:55;;;;;;;10.60;2.40;;;13.40;99.90;;;;;;5060004;28;20063;-80
2021/06/23 03:02:21;;;;;;;13.27;2.60;;;13.40;99.90;;;;;;5057751;28;20052;-79
2021/06/23 03:04:48;;;;;;;10.55;2.10;;;13.30;99.90;;;;;;5047390;28;20082;-81
2021/06/23 03:07:15;;;;;;;15.30;2.45;;;13.40;99.90;;;;;;5064024;28;20075;-81
2021/06/23 03:09:43;;;;;;;10.05;2.38;;;13.30;99.90;;;;;;5065386;28;20044;-80
2021/06/23 03:12:14;;;;;;;15.50;2.85;;;13.40;99.90;;;;;;5046695;28;20102;-79
2021/06/23 03:14:41;;;;;;;10.93;2.50;;;13.30;99.90;;;;;;5066885;28;20068;-79
2021/06/23 03:17:07;;;;;;;16.80;2.95;;;13.40;99.90;;;;;;5066253;28;20073;-80
2021/06/23 03:19:33;;;;;;;10.23;2.83;;;13.20;99.90;;;;;;5070769;28;20071;-80
2021/06/23 03:22:07;;;;;;;11.98;3.13;;;13.30;99.90;;;;;;5064811;28;20205;-79
2021/06/23 03:24:35;;;;;;;13.75;2.80;;;13.30;99.90;;;;;;5066827;28;20036;-81
2021/06/23 03:27:01;;;;;;;11.38;2.80;;;13.40;99.90;;;;;;5065249;28;20094;-80
2021/06/23 03:29:31;;;;;;;13.35;3.30;;;13.30;99.90;;;;;;5063378;28;20032;-80
2021/06/23 03:31:57;;;;;;;12.30;3.15;;;13.30;99.90;;;;;;5069367;28;20056;-80
2021/06/23 03:34:24;;;;;;;18.67;3.35;;;13.40;99.90;;;;;;5066782;28;20064;-81
2021/06/23 03:36:52;;;;;;;14.63;3.20;;;13.40;99.90;;;;;;5057512;28;20028;-81
2021/06/23 03:39:19;;;;;;;16.08;3.30;;;13.40;99.90;;;;;;5069419;28;20437;-81
2021/06/23 03:41:45;;;;;;;15.63;3.67;;;13.40;99.90;;;;;;5062250;28;20115;-80
2021/06/23 03:44:11;;;;;;;13.43;2.90;;;13.40;99.90;;;;;;5063456;28;20116;-79
2021/06/23 03:46:37;;;;;;;11.90;3.33;;;13.40;99.90;;;;;;5063570;28;20032;-80
2021/06/23 03:49:05;;;;;;;11.55;3.30;;;13.40;99.90;;;;;;5056341;28;20037;-80
2021/06/23 03:51:32;;;;;;;13.88;3.60;;;13.40;99.90;;;;;;5060989;28;20031;-79
2021/06/23 03:54:16;;;;;;;12.05;2.85;;;13.40;99.90;;;;;;5062875;28;20123;-80
2021/06/23 03:56:45;;;;;;;13.00;3.60;;;13.40;99.90;;;;;;5060029;28;20036;-80
2021/06/23 03:59:11;;;;;;;15.32;2.97;;;13.50;99.90;;;;;;5064683;28;20057;-80
2021/06/23 04:01:37;;;;;;;9.65;2.88;;;13.40;99.90;;;;;;5063616;28;20081;-80
2021/06/23 04:04:04;;;;;;;11.48;3.03;;;13.50;99.90;;;;;;5057219;28;20151;-80
2021/06/23 04:06:31;;;;;;;8.20;2.40;;;13.40;99.90;;;;;;5059468;28;20094;-80
2021/06/23 04:09:00;;;;;;;16.58;3.45;;;13.50;99.90;;;;;;5058722;28;20099;-81
2021/06/23 04:11:27;;;;;;;15.93;3.22;;;13.40;99.90;;;;;;5061612;28;20041;-81
2021/06/23 04:13:55;;;;;;;7.85;2.60;;;13.50;99.90;;;;;;5061535;28;20047;-80
2021/06/23 04:16:21;;;;;;;13.75;3.03;;;13.40;99.90;;;;;;5076249;28;20033;-80
2021/06/23 04:18:49;;;;;;;12.00;3.13;;;13.50;99.90;;;;;;5059267;28;20033;-80
2021/06/23 04:21:15;;;;;;;12.07;2.95;;;13.40;99.90;;;;;;5058588;28;20082;-79
2021/06/23 04:23:42;;;;;;;14.02;3.38;;;13.40;99.90;;;;;;5057655;28;20052;-81
2021/06/23 04:26:08;;;;;;;14.68;3.30;;;13.50;99.90;;;;;;5069502;28;20032;-80
2021/06/23 04:28:35;;;;;;;13.15;3.50;;;13.50;99.90;;;;;;5065348;28;20045;-80
2021/06/23 04:31:03;;;;;;;15.80;3.35;;;13.50;99.90;;;;;;5048520;28;20437;-80
2021/06/23 04:33:29;;;;;;;11.88;3.50;;;13.40;99.90;;;;;;5066105;28;20072;-80
2021/06/23 04:35:55;;;;;;;15.73;3.65;;;13.40;99.90;;;;;;5049425;28;20049;-79
2021/06/23 04:38:21;;;;;;;18.50;4.28;;;13.40;99.90;;;;;;5067723;28;20401;-79
2021/06/23 04:40:47;;;;;;;15.55;4.07;;;13.50;99.90;;;;;;5044089;28;20041;-79
2021/06/23 04:43:13;;;;;;;15.35;4.00;;;13.40;99.90;;;;;;5046950;28;20043;-81
2021/06/23 04:45:39;;;;;;;19.70;4.30;;;13.30;99.90;;;;;;5045608;28;20468;-81
2021/06/23 04:48:06;;;;;;;11.45;3.58;;;13.30;99.90;;;;;;5044929;28;22227;-81
2021/06/23 04:50:31;;;;;;;12.40;4.15;;;13.30;99.90;;;;;;5051300;28;20382;-80
2021/06/23 04:52:58;;;;;;;14.30;4.10;;;13.20;99.90;;;;;;5049566;28;20040;-79
2021/06/23 04:55:23;;;;;;;19.17;4.03;;;13.20;99.90;;;;;;5050375;28;20069;-79
2021/06/23 04:57:49;;;;;;;17.30;4.00;;;13.20;99.90;;;;;;5049334;28;20434;-81
2021/06/23 05:00:19;;;;;;;12.27;3.63;;;13.30;99.90;;;;;;5049614;28;20118;-81
2021/06/23 05:02:45;;;;;;;20.90;3.40;;;13.30;99.90;;;;;;5046732;28;20518;-80
2021/06/23 05:05:13;;;;;;;11.32;2.58;;;13.20;99.90;;;;;;5047000;28;20508;-81
2021/06/23 05:07:38;;;;;;;8.93;2.80;;;13.30;99.90;;;;;;5046269;28;20470;-79
2021/06/23 05:10:05;;;;;;;14.68;3.63;;;13.40;99.90;;;;;;5048578;28;20140;-80
2021/06/23 05:12:30;;;;;;;15.77;4.10;;;13.40;99.90;;;;;;5048108;28;20496;-80
2021/06/23 05:14:57;;;;;;;12.98;3.80;;;13.40;99.90;;;;;;5032253;28;20072;-80
2021/06/23 05:17:24;;;;;;;15.13;3.95;;;13.50;99.90;;;;;;5041868;28;20406;-80
2021/06/23 05:19:50;;;;;;;15.40;3.70;;;13.50;99.90;;;;;;5048271;28;20083;-81
2021/06/23 05:22:16;;;;;;;16.45;3.88;;;13.60;99.90;;;;;;5060912;28;20033;-81
2021/06/23 05:24:42;;;;;;;12.13;3.55;;;13.60;99.90;;;;;;5050861;28;20033;-80
2021/06/23 05:27:09;;;;;;;10.50;2.72;;;13.50;99.90;;;;;;5048401;28;20041;-81
2021/06/23 05:29:35;;;;;;;15.10;2.90;;;13.50;99.90;;;;;;5048968;28;20395;-80
2021/06/23 05:32:01;;;;;;;13.15;2.95;;;13.50;99.90;;;;;;5047175;28;20156;-80
2021/06/23 05:34:28;;;;;;;17.48;3.60;;;13.50;99.90;;;;;;5044354;28;20120;-80
2021/06/23 05:36:55;;;;;;;16.10;2.95;;;13.50;99.90;;;;;;5068257;28;20045;-80
2021/06/23 05:39:21;;;;;;;10.65;2.70;;;13.50;99.90;;;;;;5030549;28;20073;-79
2021/06/23 05:41:47;;;;;;;16.65;3.60;;;13.50;99.90;;;;;;5050449;28;20088;-75
2021/06/23 05:44:13;;;;;;;16.42;3.65;;;13.50;99.90;;;;;;5050028;28;20052;-72
2021/06/23 05:46:40;;;;;;;9.45;2.72;;;13.60;99.90;;;;;;5050641;28;20029;-72
2021/06/23 05:49:06;;;;;;;13.68;3.20;;;13.60;99.90;;;;;;5045539;28;20105;-72
2021/06/23 05:51:31;;;;;;;13.65;3.63;;;13.60;99.90;;;;;;5062792;28;20072;-75
2021/06/23 05:53:57;;;;;;;10.98;2.70;;;13.70;99.90;;;;;;5048726;28;20045;-76
2021/06/23 05:56:23;;;;;;;16.77;3.47;;;13.80;99.90;;;;;;5048526;28;20049;-75
2021/06/23 05:58:49;;;;;;;12.93;3.20;;;13.80;99.90;;;;;;5047662;28;20083;-75
2021/06/23 06:01:15;;;;;;;9.93;2.92;;;13.70;99.90;;;;;;5048179;28;20045;-76
2021/06/23 06:03:41;;;;;;;10.35;3.60;;;13.90;99.90;;;;;;5047378;28;20090;-76
2021/06/23 06:06:08;;;;;;;7.18;2.60;;;13.90;99.90;;;;;;5049067;28;20531;-75
2021/06/23 06:08:33;;;;;;;9.57;2.97;;;14.10;99.90;;;;;;5046919;28;20037;-76
2021/06/23 06:10:59;;;;;;;14.75;3.00;;;14.00;99.90;;;;;;5049272;28;20508;-77
2021/06/23 06:13:26;;;;;;;12.85;3.05;;;14.00;99.90;;;;;;5047304;28;20041;-77
2021/06/23 06:15:52;;;;;;;14.45;3.58;;;14.00;99.90;;;;;;5053068;28;20144;-76
2021/06/23 06:18:17;;;;;;;26.38;3.53;;;14.20;99.90;;;;;;5043650;28;20080;-78
2021/06/23 06:20:43;;;;;;;20.35;3.47;;;14.00;99.90;;;;;;5052850;28;20091;-81
2021/06/23 06:23:09;;;;;;;14.55;3.50;;;14.00;99.90;;;;;;5050307;28;20044;-77
2021/06/23 06:25:35;;;;;;;17.65;3.40;;;13.90;99.90;;;;;;5049903;28;20045;-79
2021/06/23 06:28:01;;;;;;;12.10;3.20;;;13.70;99.90;;;;;;5050497;28;20124;-78
2021/06/23 06:30:27;;;;;;;14.25;4.20;;;13.80;99.90;;;;;;5052321;28;20357;-83
2021/06/23 06:32:54;;;;;;;13.45;3.30;;;13.80;99.90;;;;;;5051896;28;20048;-79
2021/06/23 06:35:20;;;;;;;12.55;3.38;;;13.80;99.90;;;;;;5059099;28;20049;-79
2021/06/23 06:37:46;;;;;;;12.00;3.30;;;13.80;99.90;;;;;;5050188;28;20087;-79
2021/06/23 06:40:13;;;;;;;13.07;3.58;;;13.80;99.90;;;;;;5052310;28;20448;-81
2021/06/23 06:42:42;;;;;;;10.15;3.58;;;13.90;99.90;;;;;;5051411;28;20029;-78
2021/06/23 06:45:08;;;;;;;16.52;3.80;;;13.80;99.90;;;;;;5051651;28;20112;-76
2021/06/23 06:47:34;;;;;;;14.48;3.47;;;13.90;99.90;;;;;;5051935;28;20041;-76
2021/06/23 06:50:00;;;;;;;17.05;3.30;;;13.90;99.90;;;;;;5053205;28;20388;-76
2021/06/23 06:52:26;;;;;;;18.38;3.45;;;14.10;99.90;;;;;;5032831;28;20076;-75
2021/06/23 06:54:52;;;;;;;19.15;3.15;;;14.10;99.90;;;;;;5051961;28;20068;-79
2021/06/23 06:57:17;;;;;;;14.75;3.45;;;14.10;99.90;;;;;;5051764;28;20485;-77
2021/06/23 06:59:43;;;;;;;14.98;3.10;;;14.10;99.90;;;;;;5044958;28;20204;-77
2021/06/23 07:02:09;;;;;;;17.55;3.50;;;14.20;99.90;;;;;;5050840;28;20119;-78
2021/06/23 07:04:34;;;;;;;15.68;3.25;;;14.30;99.90;;;;;;5048657;28;20124;-76
2021/06/23 07:07:01;;;;;;;11.38;3.13;;;14.30;99.90;;;;;;5050227;28;20045;-81
2021/06/23 07:09:27;;;;;;;12.90;2.83;;;14.30;99.90;;;;;;5049166;28;20564;-80
2021/06/23 07:11:56;;;;;;;10.77;2.80;;;14.50;99.90;;;;;;5051171;28;20132;-78
2021/06/23 07:14:22;;;;;;;11.23;2.70;;;14.50;99.90;;;;;;5030104;28;20041;-81
2021/06/23 07:16:48;;;;;;;14.52;2.83;;;14.50;99.90;;;;;;5069572;28;20047;-79
2021/06/23 07:19:14;;;;;;;11.88;2.42;;;14.60;99.90;;;;;;5050140;28;20138;-79
2021/06/23 07:21:41;;;;;;;10.20;2.97;;;14.50;99.90;;;;;;5045661;28;20473;-78
2021/06/23 07:24:07;;;;;;;18.77;3.28;;;14.60;99.90;;;;;;5048646;28;20116;-78
2021/06/23 07:26:33;;;;;;;11.90;2.55;;;14.70;99.90;;;;;;5049945;28;20048;-80
2021/06/23 07:29:03;;;;;;;15.63;2.65;;;14.70;99.90;;;;;;5050771;28;20085;-82
2021/06/23 07:31:46;;;;;;;9.43;2.78;;;14.70;99.90;;;;;;5041001;28;20049;-82
2021/06/23 07:36:43;;;;;;;12.38;2.83;;;14.70;99.90;;;;;;5050951;28;20120;-81
2021/06/23 07:39:14;;;;;;;10.70;2.45;;;14.60;99.90;;;;;;5052516;28;20132;-80
2021/06/23 07:41:42;;;;;;;12.93;2.17;;;14.70;99.90;;;;;;5053189;28;20578;-81
2021/06/23 07:44:11;;;;;;;14.90;2.83;;;14.70;99.90;;;;;;5051196;28;20106;-80
2021/06/23 07:46:46;;;;;;;11.85;2.25;;;14.60;99.90;;;;;;5052616;28;20033;-78
2021/06/23 07:49:12;;;;;;;13.52;2.80;;;14.60;99.90;;;;;;5043174;28;20030;-80
2021/06/23 07:51:45;;;;;;;15.40;3.05;;;14.70;99.90;;;;;;5051196;28;20373;-80
2021/06/23 08:10:05;;;;;;;6.45;1.65;;;14.80;99.90;;;;;;5050496;28;20072;-79
2021/06/23 08:12:50;;;;;;;11.80;2.40;;;14.80;99.90;;;;;;5067739;28;20211;-79
2021/06/23 08:15:16;;;;;;;18.00;2.75;;;14.80;99.90;;;;;;5051762;28;20473;-78
2021/06/23 08:17:43;;;;;;;11.13;2.10;;;14.90;99.90;;;;;;5050021;28;20040;-78
2021/06/23 08:20:09;;;;;;;10.77;2.40;;;14.90;99.90;;;;;;5049302;28;20048;-78
2021/06/23 08:22:35;;;;;;;15.98;2.72;;;14.90;99.90;;;;;;5047966;28;20033;-79
2021/06/23 08:25:01;;;;;;;9.73;2.30;;;14.90;99.90;;;;;;5044822;28;20359;-79
2021/06/23 08:27:27;;;;;;;10.77;2.00;;;14.90;99.90;;;;;;5064495;28;20033;-78
2021/06/23 08:29:53;;;;;;;6.63;2.10;;;14.90;99.90;;;;;;5049122;28;20041;-78
2021/06/23 08:32:19;;;;;;;6.85;1.98;;;15.00;99.90;;;;;;5047783;28;20075;-78
2021/06/23 08:34:44;;;;;;;8.20;2.30;;;14.90;99.90;;;;;;5051280;28;20162;-78
2021/06/23 08:37:10;;;;;;;10.80;2.33;;;14.90;99.90;;;;;;5055748;28;20045;-79
2021/06/23 08:39:36;;;;;;;10.98;2.13;;;14.90;99.90;;;;;;5051360;28;20044;-79
2021/06/23 08:42:02;;;;;;;15.15;2.33;;;14.90;99.90;;;;;;5049251;28;20033;-79
2021/06/23 08:44:28;;;;;;;10.25;2.22;;;14.90;99.90;;;;;;5049320;28;20047;-78
2021/06/23 08:46:54;;;;;;;11.13;2.40;;;14.90;99.90;;;;;;5066437;28;20474;-78
2021/06/23 08:49:20;;;;;;;10.23;2.22;;;14.90;99.90;;;;;;5051187;28;20045;-79
2021/06/23 08:51:46;;;;;;;11.98;2.15;;;14.80;99.90;;;;;;5048485;28;20111;-78
2021/06/23 08:54:13;;;;;;;11.18;2.20;;;14.80;99.90;;;;;;5048615;28;20040;-79
2021/06/23 08:56:38;;;;;;;11.60;2.13;;;14.90;99.90;;;;;;5051331;28;20040;-79
2021/06/23 08:59:05;;;;;;;14.95;2.30;;;15.00;99.90;;;;;;5049700;28;20452;-79
2021/06/23 09:01:32;;;;;;;8.20;1.98;;;15.10;99.90;;;;;;5051873;28;20029;-79
2021/06/23 09:03:59;;;;;;;8.38;2.20;;;15.10;99.90;;;;;;5046880;28;20045;-79
2021/06/23 09:06:50;;;;;;;6.95;1.95;;;15.30;99.90;;;;;;5032357;28;20492;-79
2021/06/23 09:09:19;;;;;;;8.98;1.95;;;15.30;99.90;;;;;;5040002;28;20048;-80
2021/06/23 09:11:46;;;;;;;9.85;1.90;;;15.30;99.90;;;;;;5045595;28;20354;-80
2021/06/23 09:14:14;;;;;;;12.30;2.20;;;15.20;99.90;;;;;;5038991;28;20060;-79
2021/06/23 09:17:06;;;;;;;9.55;2.17;;;15.10;99.90;;;;;;5049124;28;20037;-80
2021/06/23 09:20:03;;;;;;;13.95;2.70;;;15.20;99.90;;;;;;5050726;28;20041;-80
2021/06/23 09:22:35;;;;;;;9.65;2.20;;;15.30;99.90;;;;;;5040097;28;20060;-79
2021/06/23 09:25:07;;;;;;;15.43;2.30;;;15.30;99.90;;;;;;5048962;28;20037;-80
2021/06/23 09:27:33;;;;;;;8.93;2.25;;;15.30;99.90;;;;;;5024397;28;20140;-80
2021/06/23 09:30:34;;;;;;;10.55;2.10;;;15.30;99.90;;;;;;5047172;28;20639;-79
2021/06/23 09:33:21;;;;;;;12.73;2.42;;;15.20;99.90;;;;;;5062521;28;20047;-80
2021/06/23 09:35:56;;;;;;;11.85;1.95;;;15.20;99.90;;;;;;5052049;28;20144;-80
2021/06/23 09:38:32;;;;;;;;;;;15.20;99.90;;;;;;5068796;28;20579;-80
2021/06/23 09:41:00;;;;;;;12.30;2.03;;;15.30;99.90;;;;;;5061942;28;19924;-79
2021/06/23 09:43:40;;;;;;;8.65;2.47;;;15.40;99.90;;;;;;5068759;28;20086;-80
2021/06/23 09:46:14;;;;;;;7.95;2.38;;;15.50;99.90;;;;;;5060644;28;20036;-80
2021/06/23 09:48:40;;;;;;;21.27;3.05;;;15.50;99.90;;;;;;5051547;28;20102;-79
2021/06/23 09:51:14;;;;;;;7.88;1.80;;;15.40;99.90;;;;;;5072574;28;20504;-80
2021/06/23 09:53:40;;;;;;;15.20;2.47;;;15.20;99.90;;;;;;5058060;28;20396;-80
2021/06/23 09:56:27;;;;;;;10.25;1.90;;;15.20;99.90;;;;;;5072389;28;20062;-80
2021/06/23 09:58:55;;;;;;;9.88;2.30;;;15.20;99.90;;;;;;5072544;28;20518;-80
2021/06/23 10:01:22;;;;;;;12.13;2.40;;;15.30;99.90;;;;;;5071898;28;20121;-80
2021/06/23 10:03:58;;;;;;;11.70;2.20;;;15.40;99.90;;;;;;5072120;28;20535;-80
2021/06/23 10:06:26;;;;;;;9.50;2.35;;;15.30;99.90;;;;;;5071105;28;20499;-80
2021/06/23 10:09:11;;;;;;;8.43;2.08;;;15.40;99.90;;;;;;5045443;28;20136;-80
2021/06/23 10:11:38;;;;;;;12.45;2.33;;;15.30;99.90;;;;;;5069308;28;20480;-80
2021/06/23 10:14:06;;;;;;;9.10;2.00;;;15.20;99.90;;;;;;5069897;28;20071;-80
2021/06/23 10:16:32;;;;;;;18.42;2.65;;;15.30;99.90;;;;;;5046662;28;20028;-80
2021/06/23 10:18:58;;;;;;;10.40;2.75;;;15.30;99.90;;;;;;5054629;28;20567;-80
2021/06/23 10:21:24;;;;;;;13.93;2.55;;;15.30;99.90;;;;;;5053266;28;20045;-80
2021/06/23 10:23:50;;;;;;;9.57;2.30;;;15.10;99.90;;;;;;5051948;28;20116;-80
2021/06/23 10:26:17;;;;;;;9.52;2.00;;;15.20;99.90;;;;;;5052639;28;20076;-80
2021/06/23 10:28:48;;;;;;;8.23;2.00;;;15.30;99.90;;;;;;5043885;28;20128;-80
2021/06/23 10:31:15;;;;;;;11.93;2.42;;;15.50;99.90;;;;;;5053356;28;20041;-80
2021/06/23 10:33:41;;;;;;;9.30;1.88;;;15.60;99.90;;;;;;5051821;28;20143;-80
2021/06/23 10:36:07;;;;;;;8.77;2.00;;;15.40;99.90;;;;;;5051949;28;20055;-80
2021/06/23 10:38:35;;;;;;;12.23;2.92;;;15.50;99.90;;;;;;5051354;28;20116;-80
2021/06/23 10:41:02;;;;;;;9.80;2.15;;;15.40;99.90;;;;;;5035483;28;20071;-80
2021/06/23 10:43:28;;;;;;;12.93;2.55;;;15.30;99.90;;;;;;5051279;28;20037;-80
2021/06/23 10:45:54;;;;;;;11.05;2.45;;;15.40;99.90;;;;;;5045866;28;20037;-80
2021/06/23 10:48:20;;;;;;;11.10;2.30;;;15.60;99.90;;;;;;5053705;28;20464;-80
2021/06/23 10:50:45;;;;;;;8.65;1.98;;;15.60;99.90;;;;;;5053201;28;20068;-80
2021/06/23 10:53:30;;;;;;;10.18;1.88;;;15.60;99.90;;;;;;5045096;28;20463;-80
2021/06/23 10:56:40;;;;;;;10.63;2.38;;;15.70;99.90;;;;;;5030176;28;20048;-80
2021/06/23 10:59:35;;;;;;;7.82;2.00;;;15.40;99.90;;;;;;5058484;28;20050;-80
2021/06/23 11:02:14;;;;;;;11.27;2.07;;;15.50;99.90;;;;;;5051266;28;20044;-80
2021/06/23 11:05:00;;;;;;;11.95;2.28;;;15.60;99.90;;;;;;5045987;28;20068;-80
2021/06/23 11:07:41;;;;;;;11.00;2.05;;;15.60;99.90;;;;;;5050945;28;20120;-80
2021/06/23 11:10:16;;;;;;;14.38;2.28;;;15.70;99.90;;;;;;5053444;28;20545;-80
2021/06/23 11:13:04;;;;;;;11.23;2.40;;;15.80;99.90;;;;;;5086322;28;20062;-81
2021/06/23 11:15:33;;;;;;;9.30;2.38;;;15.80;99.90;;;;;;5090131;28;20518;-81
2021/06/23 11:18:18;;;;;;;8.95;2.00;;;15.80;99.90;;;;;;5066131;28;20044;-80
2021/06/23 11:20:55;;;;;;;7.80;2.40;;;16.00;99.90;;;;;;5090477;28;20044;-81
2021/06/23 11:23:42;;;;;;;9.80;2.58;;;16.00;99.90;;;;;;5072347;28;20110;-81
2021/06/23 11:26:18;;;;;;;13.98;2.35;;;16.00;99.90;;;;;;5089380;28;20436;-81
2021/06/23 11:28:46;;;;;;;10.45;2.20;;;16.20;99.90;;;;;;5070116;28;20048;-81
2021/06/23 11:31:12;;;;;;;15.43;2.22;;;16.10;99.90;;;;;;5057033;28;20055;-81
2021/06/23 11:33:38;;;;;;;16.10;2.30;;;16.20;99.90;;;;;;5067324;28;20043;-81
2021/06/23 11:36:13;;;;;;;10.77;2.08;;;16.20;99.90;;;;;;5074589;28;20524;-81
2021/06/23 11:38:39;;;;;;;10.40;2.53;;;16.30;99.90;;;;;;5090237;28;20067;-81
2021/06/23 11:41:07;;;;;;;13.85;2.22;;;16.20;99.90;;;;;;5091204;28;20048;-81
2021/06/23 11:43:33;;;;;;;8.13;2.25;;;16.10;99.90;;;;;;5076470;28;20049;-80
2021/06/23 11:45:59;;;;;;;10.65;2.25;;;16.30;99.90;;;;;;5047497;28;20052;-81
2021/06/23 11:48:25;;;;;;;9.57;2.03;;;16.30;99.90;;;;;;5050830;28;20041;-81
2021/06/23 11:50:52;;;;;;;12.45;2.17;;;16.40;99.90;;;;;;5051296;28;20342;-80
2021/06/23 11:53:24;;;;;;;11.45;2.15;;;16.50;99.90;;;;;;5067723;28;20150;-81
2021/06/23 11:55:52;;;;;;;8.45;1.80;;;16.80;99.90;;;;;;5051501;28;20041;-80
2021/06/23 11:58:18;;;;;;;10.13;2.08;;;16.80;99.90;;;;;;5052238;28;20116;-81
2021/06/23 12:00:44;;;;;;;7.13;1.80;;;17.10;99.90;;;;;;5049587;28;20361;-81
2021/06/23 12:03:15;;;;;;;10.98;2.25;;;17.40;99.90;;;;;;5047593;28;20347;-81
2021/06/23 12:05:42;;;;;;;13.43;2.15;;;17.70;99.90;;;;;;5051496;28;20480;-81
2021/06/23 12:08:08;;;;;;;12.32;2.47;;;18.10;99.90;;;;;;5049744;28;20484;-81
2021/06/23 12:10:35;;;;;;;13.35;2.30;;;18.40;99.90;;;;;;5051696;28;20127;-81
2021/06/23 12:13:03;;;;;;;12.18;2.08;;;19.00;99.90;;;;;;5049777;28;20045;-81
2021/06/23 12:15:29;;;;;;;9.00;2.10;;;19.50;99.90;;;;;;5033853;28;20059;-82
2021/06/23 12:18:05;;;;;;;14.23;2.20;;;19.40;99.90;;;;;;5050768;28;20111;-80
2021/06/23 12:20:46;;;;;;;9.25;2.10;;;19.90;99.90;;;;;;5007656;28;20513;-80
2021/06/23 12:23:12;;;;;;;11.10;2.10;;;20.10;99.90;;;;;;5012018;28;20052;-80
2021/06/23 12:25:43;;;;;;;10.73;2.13;;;19.70;99.90;;;;;;5029684;28;20145;-80
2021/06/23 12:28:14;;;;;;;11.75;2.10;;;19.70;99.90;;;;;;5012935;28;20034;-80
2021/06/23 12:30:43;;;;;;;9.98;1.92;;;19.50;99.90;;;;;;4995060;28;20086;-81
2021/06/23 12:33:11;;;;;;;9.88;2.15;;;19.10;99.90;;;;;;5029334;28;20053;-80
2021/06/23 12:35:38;;;;;;;14.10;2.20;;;19.40;99.90;;;;;;5012530;28;20044;-81
2021/06/23 12:38:08;;;;;;;10.00;2.15;;;19.50;99.90;;;;;;5029214;28;20523;-80
2021/06/23 12:40:35;;;;;;;15.95;2.75;;;19.80;99.90;;;;;;5029467;28;20107;-80
2021/06/23 12:43:01;;;;;;;6.65;2.10;;;19.70;99.90;;;;;;5010699;28;20057;-81
2021/06/23 12:45:27;;;;;;;8.52;2.00;;;19.80;99.90;;;;;;5011929;28;20053;-81
2021/06/23 12:47:54;;;;;;;6.03;1.60;;;19.70;99.90;;;;;;5009296;28;20059;-81
2021/06/23 12:50:20;;;;;;;7.45;1.92;;;19.70;99.90;;;;;;5023278;28;20061;-81
2021/06/23 12:52:48;;;;;;;8.75;1.90;;;19.80;99.90;;;;;;5011121;28;20095;-82
2021/06/23 12:55:17;;;;;;;9.00;1.83;;;19.70;99.90;;;;;;5029117;28;20493;-81
2021/06/23 12:57:43;;;;;;;8.57;2.00;;;19.50;99.90;;;;;;5001564;28;20113;-81
2021/06/23 13:00:11;;;;;;;7.57;2.22;;;19.60;99.90;;;;;;5050837;28;20041;-80
2021/06/23 13:02:38;;;;;;;7.43;1.80;;;20.20;99.90;;;;;;5050776;28;20033;-81
2021/06/23 13:05:07;;;;;;;11.60;1.70;;;20.20;99.90;;;;;;5049226;28;20033;-81